Pagina principală
METAR-TAF:

METAR-TAF

Aeroporturi :

Esbjerg, Danemarca

Latitudine: 55-32N, longitudine: 008-34E, elevație: 30 m

Observații meteo curente

Raportul a fost făcut în urmă cu 30 de minute, la 18:50 UTC
Vânt 9 kt de la Nord-vest
Temperatură 7°C
Umiditate 70%
Presiune 1006 hPa
Vizibilitate de 10 km sau mai mult

METAR: EKEB 161850Z AUTO 32009KT 9999 NCD 07/02 Q1006

Ora: 21:20 (19:20 UTC)

Prognoză

Raportul a fost făcut în urmă cu 1 oră și 58 de minute, la 17:22 UTC
Prognoză valabilă de la 16 ora 18 UTC la 16 ora 22 UTC
Vânt 10 kt de la Nord/Nord-vest
Vizibilitate de 10 km sau mai mult
Nori împrăștiați la o înălțime de 3000 picior

TAF: EKEB 161722Z 1618/1622 34010KT 9999 SCT030

Observații și prognoze meteo pentru peste 4.000 de aeroporturi (rapoarte METAR și TAF).

Stațiile disponibile sunt reprezentate pe hartă prin puncte galbene și roșii.

Țineți indicatorul mouse-ului pe punctul dorit pentru a vedea denumirea stației.

Apoi, faceți clic pentru a vedea observațiile și prognozele meteorologice.

Pentru a schimba harta: Pentru mărire, faceți clic pe butoanele verzi cu cruce neagră; pentru micșorare, pe butonul verde cu o liniuță; pentru hărți învecinate, pe săgețile verzi.


METAR-TAF: